Time,TemperatureF,DewpointF,PressureIn,WindDirection,WindDirectionDegrees,WindSpeedMPH,WindSpeedGustMPH,Humidity,HourlyPrecipIn,Conditions,Clouds,dailyrainin,SoftwareType,DateUTC
2013-05-07 00:07:00,49.9,47.0,30.17,SE,135,0.0,0.0,91,0.00,,,0.00,weatherlink.com 1.10,2013-05-07 04:07:00,
2013-05-07 00:22:00,49.4,47.0,30.18,SE,136,0.0,0.0,91,0.00,,,0.00,weatherlink.com 1.10,2013-05-07 04:22:00,
2013-05-07 00:37:00,49.0,47.0,30.18,SE,135,0.0,0.0,92,0.00,,,0.00,weatherlink.com 1.10,2013-05-07 04:37:00,
2013-05-07 00:52:00,48.7,47.0,30.17,SE,136,0.0,0.0,92,0.00,,,0.00,weatherlink.com 1.10,2013-05-07 04:52:00,
2013-05-07 01:07:00,48.4,47.0,30.17,SE,136,0.0,0.0,93,0.00,,,0.00,weatherlink.com 1.10,2013-05-07 05:07:00,
2013-05-07 01:22:00,48.1,46.0,30.16,SE,135,0.0,0.0,93,0.00,,,0.00,weatherlink.com 1.10,2013-05-07 05:22:00,
2013-05-07 01:37:00,47.8,46.0,30.15,SE,135,0.0,0.0,93,0.00,,,0.00,weatherlink.com 1.10,2013-05-07 05:37:00,
2013-05-07 01:52:00,47.7,46.0,30.15,SE,136,0.0,0.0,94,0.00,,,0.00,weatherlink.com 1.10,2013-05-07 05:52:00,
2013-05-07 02:07:00,47.4,46.0,30.15,SE,135,0.0,0.0,94,0.00,,,0.00,weatherlink.com 1.10,2013-05-07 06:07:00,
2013-05-07 02:22:00,47.3,46.0,30.14,SE,135,0.0,0.0,94,0.00,,,0.00,weatherlink.com 1.10,2013-05-07 06:22:00,
2013-05-07 02:37:00,47.2,46.0,30.14,SE,135,0.0,0.0,94,0.00,,,0.00,weatherlink.com 1.10,2013-05-07 06:37:00,
2013-05-07 02:52:00,47.1,46.0,30.14,SE,135,0.0,0.0,94,0.00,,,0.00,weatherlink.com 1.10,2013-05-07 06:52:00,
2013-05-07 03:07:00,46.8,46.0,30.14,SE,135,0.0,0.0,95,0.00,,,0.00,weatherlink.com 1.10,2013-05-07 07:07:00,
2013-05-07 03:22:00,46.6,45.0,30.14,SE,135,0.0,0.0,95,0.00,,,0.00,weatherlink.com 1.10,2013-05-07 07:22:00,
2013-05-07 03:37:00,46.7,45.0,30.13,SE,135,0.0,0.0,95,0.00,,,0.00,weatherlink.com 1.10,2013-05-07 07:37:00,
2013-05-07 03:52:00,46.7,45.0,30.13,SE,135,0.0,0.0,95,0.00,,,0.00,weatherlink.com 1.10,2013-05-07 07:52:00,
2013-05-07 04:07:00,46.7,46.0,30.13,SE,135,0.0,0.0,96,0.00,,,0.00,weatherlink.com 1.10,2013-05-07 08:07:00,
2013-05-07 04:22:00,46.7,45.0,30.13,SE,135,0.0,0.0,95,0.00,,,0.00,weatherlink.com 1.10,2013-05-07 08:22:00,
2013-05-07 04:37:00,46.8,46.0,30.13,SE,136,0.0,0.0,96,0.00,,,0.00,weatherlink.com 1.10,2013-05-07 08:37:00,
2013-05-07 04:52:00,46.8,46.0,30.13,SE,135,0.0,0.0,96,0.00,,,0.00,weatherlink.com 1.10,2013-05-07 08:52:00,
2013-05-07 05:07:00,47.2,46.0,30.13,SE,136,0.0,0.0,96,0.00,,,0.00,weatherlink.com 1.10,2013-05-07 09:07:00,
2013-05-07 05:22:00,47.5,47.0,30.13,SE,136,0.0,0.0,96,0.00,,,0.00,weatherlink.com 1.10,2013-05-07 09:22:00,
2013-05-07 05:37:00,47.6,47.0,30.13,SE,135,0.0,0.0,96,0.00,,,0.00,weatherlink.com 1.10,2013-05-07 09:37:00,
2013-05-07 05:52:00,47.9,47.0,30.13,SE,135,0.0,0.0,96,0.00,,,0.00,weatherlink.com 1.10,2013-05-07 09:52:00,
2013-05-07 06:07:00,47.7,47.0,30.14,SE,135,0.0,0.0,96,0.00,,,0.00,weatherlink.com 1.10,2013-05-07 10:07:00,
2013-05-07 06:22:00,47.9,47.0,30.14,SE,136,0.0,0.0,96,0.00,,,0.00,weatherlink.com 1.10,2013-05-07 10:22:00,
2013-05-07 06:37:00,48.3,47.0,30.14,SE,136,0.0,0.0,96,0.00,,,0.00,weatherlink.com 1.10,2013-05-07 10:37:00,
2013-05-07 06:52:00,49.2,48.0,30.15,SE,136,0.0,0.0,97,0.00,,,0.00,weatherlink.com 1.10,2013-05-07 10:52:00,
2013-05-07 07:07:00,51.0,50.0,30.15,ESE,122,0.0,1.0,97,0.00,,,0.00,weatherlink.com 1.10,2013-05-07 11:07:00,
2013-05-07 07:23:00,52.2,51.0,30.14,SE,142,0.0,1.0,94,0.00,,,0.00,weatherlink.com 1.10,2013-05-07 11:23:00,
2013-05-07 07:38:00,53.5,51.0,30.14,East,100,0.0,2.0,90,0.00,,,0.00,weatherlink.com 1.10,2013-05-07 11:38:00,
2013-05-07 07:53:00,55.3,51.0,30.15,ENE,75,0.0,1.0,86,0.00,,,0.00,weatherlink.com 1.10,2013-05-07 11:53:00,
2013-05-07 08:08:00,56.3,51.0,30.15,East,96,0.0,2.0,82,0.00,,,0.00,weatherlink.com 1.10,2013-05-07 12:08:00,
2013-05-07 08:23:00,57.4,52.0,30.15,SSE,152,0.0,2.0,81,0.00,,,0.00,weatherlink.com 1.10,2013-05-07 12:23:00,
2013-05-07 08:38:00,58.5,51.0,30.16,SSE,148,0.0,3.0,77,0.00,,,0.00,weatherlink.com 1.10,2013-05-07 12:38:00,
2013-05-07 08:53:00,59.4,51.0,30.16,East,98,0.0,2.0,75,0.00,,,0.00,weatherlink.com 1.10,2013-05-07 12:53:00,
2013-05-07 09:08:00,60.6,51.0,30.16,ENE,65,2.0,3.0,71,0.00,,,0.00,weatherlink.com 1.10,2013-05-07 13:08:00,
2013-05-07 09:23:00,61.3,51.0,30.16,SW,219,0.0,4.0,69,0.00,,,0.00,weatherlink.com 1.10,2013-05-07 13:23:00,
2013-05-07 09:38:00,62.2,51.0,30.16,SSE,155,0.0,3.0,68,0.00,,,0.00,weatherlink.com 1.10,2013-05-07 13:38:00,
2013-05-07 09:53:00,63.1,52.0,30.16,North,11,3.0,4.0,68,0.00,,,0.00,weatherlink.com 1.10,2013-05-07 13:53:00,
2013-05-07 10:08:00,63.5,53.0,30.16,ESE,110,5.0,5.0,69,0.00,,,0.00,weatherlink.com 1.10,2013-05-07 14:08:00,
2013-05-07 10:23:00,64.0,53.0,30.16,East,95,1.0,3.0,68,0.00,,,0.00,weatherlink.com 1.10,2013-05-07 14:23:00,
2013-05-07 10:38:00,64.8,54.0,30.16,SE,124,2.0,5.0,69,0.00,,,0.00,weatherlink.com 1.10,2013-05-07 14:38:00,
2013-05-07 10:53:00,65.8,55.0,30.16,NNE,19,2.0,4.0,68,0.00,,,0.00,weatherlink.com 1.10,2013-05-07 14:53:00,
2013-05-07 11:08:00,66.6,57.0,30.16,SSE,149,1.0,7.0,70,0.00,,,0.00,weatherlink.com 1.10,2013-05-07 15:08:00,
2013-05-07 11:23:00,67.3,57.0,30.15,SSE,156,3.0,5.0,69,0.00,,,0.00,weatherlink.com 1.10,2013-05-07 15:23:00,
2013-05-07 11:38:00,68.4,57.0,30.14,SSE,155,1.0,2.0,68,0.00,,,0.00,weatherlink.com 1.10,2013-05-07 15:38:00,
2013-05-07 11:53:00,69.3,57.0,30.14,South,181,3.0,3.0,66,0.00,,,0.00,weatherlink.com 1.10,2013-05-07 15:53:00,
2013-05-07 12:08:00,68.8,57.0,30.14,East,90,0.0,6.0,66,0.00,,,0.00,weatherlink.com 1.10,2013-05-07 16:08:00,
2013-05-07 12:24:00,69.4,57.0,30.14,NNE,32,1.0,4.0,65,0.00,,,0.00,weatherlink.com 1.10,2013-05-07 16:24:00,
2013-05-07 12:39:00,69.4,57.0,30.13,SSE,149,3.0,6.0,65,0.00,,,0.00,weatherlink.com 1.10,2013-05-07 16:39:00,
2013-05-07 12:54:00,70.7,57.0,30.13,NNE,27,5.0,5.0,63,0.00,,,0.00,weatherlink.com 1.10,2013-05-07 16:54:00,
2013-05-07 13:09:00,70.1,57.0,30.12,NE,46,0.0,6.0,64,0.00,,,0.00,weatherlink.com 1.10,2013-05-07 17:09:00,
2013-05-07 13:24:00,71.2,59.0,30.12,ENE,78,1.0,4.0,65,0.00,,,0.00,weatherlink.com 1.10,2013-05-07 17:24:00,
2013-05-07 13:39:00,71.2,57.0,30.12,SE,146,2.0,6.0,62,0.00,,,0.00,weatherlink.com 1.10,2013-05-07 17:39:00,
2013-05-07 13:54:00,71.1,58.0,30.12,East,80,1.0,7.0,63,0.00,,,0.00,weatherlink.com 1.10,2013-05-07 17:54:00,
2013-05-07 14:09:00,71.6,58.0,30.12,East,82,3.0,6.0,62,0.00,,,0.00,weatherlink.com 1.10,2013-05-07 18:09:00,
2013-05-07 14:24:00,71.3,58.0,30.11,SSE,157,0.0,5.0,63,0.00,,,0.00,weatherlink.com 1.10,2013-05-07 18:24:00,
2013-05-07 14:39:00,71.6,59.0,30.11,WSW,253,1.0,5.0,65,0.00,,,0.00,weatherlink.com 1.10,2013-05-07 18:39:00,
2013-05-07 14:54:00,71.5,59.0,30.10,SW,218,0.0,6.0,65,0.00,,,0.00,weatherlink.com 1.10,2013-05-07 18:54:00,
2013-05-07 15:09:00,72.8,59.0,30.10,WSW,246,2.0,5.0,63,0.00,,,0.00,weatherlink.com 1.10,2013-05-07 19:09:00,
2013-05-07 15:24:00,72.6,59.0,30.10,WSW,252,2.0,9.0,62,0.00,,,0.00,weatherlink.com 1.10,2013-05-07 19:24:00,
2013-05-07 15:39:00,72.2,60.0,30.09,ESE,102,2.0,6.0,65,0.00,,,0.00,weatherlink.com 1.10,2013-05-07 19:39:00,
2013-05-07 15:54:00,72.4,60.0,30.09,SSE,149,1.0,4.0,65,0.00,,,0.00,weatherlink.com 1.10,2013-05-07 19:54:00,
2013-05-07 16:09:00,71.4,59.0,30.09,SSE,165,2.0,5.0,66,0.00,,,0.00,weatherlink.com 1.10,2013-05-07 20:09:00,
2013-05-07 16:24:00,70.8,59.0,30.09,West,263,2.0,6.0,66,0.00,,,0.00,weatherlink.com 1.10,2013-05-07 20:24:00,
2013-05-07 16:39:00,70.9,59.0,30.09,SSW,208,1.0,3.0,67,0.00,,,0.00,weatherlink.com 1.10,2013-05-07 20:39:00,
2013-05-07 16:54:00,70.1,59.0,30.09,SSE,152,1.0,4.0,68,0.00,,,0.00,weatherlink.com 1.10,2013-05-07 20:54:00,
2013-05-07 17:09:00,68.9,59.0,30.09,SE,143,1.0,3.0,70,0.00,,,0.00,weatherlink.com 1.10,2013-05-07 21:09:00,
2013-05-07 17:24:00,66.8,58.0,30.10,West,281,0.0,5.0,74,0.00,,,0.00,weatherlink.com 1.10,2013-05-07 21:24:00,
2013-05-07 17:39:00,66.6,58.0,30.10,ESE,110,3.0,4.0,74,0.00,,,0.00,weatherlink.com 1.10,2013-05-07 21:39:00,
2013-05-07 17:54:00,67.1,58.0,30.09,WSW,238,0.0,2.0,73,0.00,,,0.00,weatherlink.com 1.10,2013-05-07 21:54:00,
2013-05-07 18:09:00,66.3,58.0,30.09,SSW,201,0.0,5.0,75,0.00,,,0.00,weatherlink.com 1.10,2013-05-07 22:09:00,
2013-05-07 18:24:00,66.8,59.0,30.09,ENE,66,1.0,2.0,76,0.00,,,0.00,weatherlink.com 1.10,2013-05-07 22:24:00,
2013-05-07 18:39:00,66.7,60.0,30.09,East,82,0.0,2.0,78,0.00,,,0.00,weatherlink.com 1.10,2013-05-07 22:39:00,
2013-05-07 18:54:00,66.3,60.0,30.09,East,101,0.0,1.0,79,0.00,,,0.00,weatherlink.com 1.10,2013-05-07 22:54:00,
2013-05-07 19:09:00,66.2,59.0,30.09,East,101,0.0,1.0,78,0.00,,,0.00,weatherlink.com 1.10,2013-05-07 23:09:00,
2013-05-07 19:24:00,66.0,59.0,30.09,ENE,58,0.0,1.0,79,0.00,,,0.00,weatherlink.com 1.10,2013-05-07 23:24:00,
2013-05-07 19:39:00,65.2,59.0,30.10,SW,228,1.0,3.0,80,0.00,,,0.00,weatherlink.com 1.10,2013-05-07 23:39:00,
2013-05-07 19:54:00,63.9,58.0,30.10,South,174,1.0,1.0,82,0.00,,,0.00,weatherlink.com 1.10,2013-05-07 23:54:00,
2013-05-07 20:24:00,63.1,58.0,30.10,SSE,148,0.0,2.0,84,0.00,,,0.00,weatherlink.com 1.10,2013-05-08 00:24:00,
2013-05-07 20:39:00,62.9,58.0,30.10,SW,218,0.0,0.0,85,0.00,,,0.00,weatherlink.com 1.10,2013-05-08 00:39:00,
2013-05-07 20:54:00,62.8,59.0,30.11,East,99,0.0,3.0,86,0.00,,,0.00,weatherlink.com 1.10,2013-05-08 00:54:00,
2013-05-07 21:09:00,62.5,58.0,30.11,ENE,72,0.0,0.0,86,0.00,,,0.00,weatherlink.com 1.10,2013-05-08 01:09:00,
2013-05-07 21:24:00,62.4,59.0,30.11,ENE,72,0.0,0.0,87,0.00,,,0.00,weatherlink.com 1.10,2013-05-08 01:24:00,
2013-05-07 21:39:00,62.5,59.0,30.11,ENE,72,0.0,0.0,87,0.00,,,0.00,weatherlink.com 1.10,2013-05-08 01:39:00,
2013-05-07 21:54:00,62.5,59.0,30.11,ENE,72,0.0,0.0,87,0.00,,,0.00,weatherlink.com 1.10,2013-05-08 01:54:00,
2013-05-07 22:09:00,62.5,59.0,30.12,SE,131,1.0,2.0,87,0.00,,,0.00,weatherlink.com 1.10,2013-05-08 02:09:00,
2013-05-07 22:24:00,62.7,59.0,30.12,WNW,295,0.0,1.0,86,0.00,,,0.00,weatherlink.com 1.10,2013-05-08 02:24:00,
2013-05-07 22:39:00,62.6,58.0,30.12,SSE,163,1.0,1.0,85,0.00,,,0.00,weatherlink.com 1.10,2013-05-08 02:39:00,
2013-05-07 22:54:00,62.8,58.0,30.11,ENE,57,0.0,2.0,84,0.00,,,0.00,weatherlink.com 1.10,2013-05-08 02:54:00,
2013-05-07 23:09:00,62.9,58.0,30.10,ESE,108,0.0,0.0,83,0.00,,,0.00,weatherlink.com 1.10,2013-05-08 03:09:00,
2013-05-07 23:24:00,62.8,57.0,30.10,NE,36,0.0,4.0,82,0.00,,,0.00,weatherlink.com 1.10,2013-05-08 03:24:00,
2013-05-07 23:39:00,62.8,57.0,30.10,SE,143,0.0,1.0,82,0.00,,,0.00,weatherlink.com 1.10,2013-05-08 03:39:00,
2013-05-07 23:54:00,62.5,57.0,30.09,SE,142,0.0,0.0,83,0.00,,,0.00,weatherlink.com 1.10,2013-05-08 03:54:00,